D11 weather

Ojibwa Airpark
Weidman, Michigan, United States

Public forecast

Using degrees Fahrenheit for public forecast. Weather courtesy of forecast.io.

METAR (pilot weather report)

Closest report is Mount Pleasant Municipal Airport, 12.9 nm (24.0 km) ESE. Retrieved 2019/09/19 16:39 UTC (0 seconds ago):

KMOP 191639Z AUTO 17005KT 10SM CLR 24/13 A3014 RMK AO2 T02370132

TAF (pilot weather forecast)

Closest forecast is MBS International Airport, 41.7 nm (77.2 km) ESE. Retrieved 2019/09/19 12:22 UTC (4 hours ago):

TAF KMBS 191120Z 1912/2012 VRB03KT P6SM BKN250 FM191300 18007KT P6SM SCT250 FM192200 18005KT P6SM SCT050 FM200500 15005KT P6SM OVC050